sensor_id;sensor_type;location;lat;lon;timestamp;P1;durP1;ratioP1;P2;durP2;ratioP2
58460;SDS011;45558;37.752;-97.822;2022-11-20T00:02:12;33.35;;;6.55;;
58460;SDS011;45558;37.752;-97.822;2022-11-20T00:04:38;34.88;;;6.28;;
58460;SDS011;45558;37.752;-97.822;2022-11-20T00:07:04;28.20;;;5.70;;
58460;SDS011;45558;37.752;-97.822;2022-11-20T00:09:30;31.50;;;7.68;;
58460;SDS011;45558;37.752;-97.822;2022-11-20T00:11:55;29.30;;;5.93;;
58460;SDS011;45558;37.752;-97.822;2022-11-20T00:14:21;41.95;;;6.70;;
58460;SDS011;45558;37.752;-97.822;2022-11-20T00:16:47;39.83;;;7.75;;
58460;SDS011;45558;37.752;-97.822;2022-11-20T00:19:12;36.45;;;8.18;;
58460;SDS011;45558;37.752;-97.822;2022-11-20T00:21:38;37.53;;;6.35;;
58460;SDS011;45558;37.752;-97.822;2022-11-20T00:24:04;35.40;;;7.32;;
58460;SDS011;45558;37.752;-97.822;2022-11-20T00:26:30;40.08;;;6.13;;
58460;SDS011;45558;37.752;-97.822;2022-11-20T00:28:57;40.17;;;8.75;;
58460;SDS011;45558;37.752;-97.822;2022-11-20T00:31:25;43.28;;;6.88;;
58460;SDS011;45558;37.752;-97.822;2022-11-20T00:33:51;42.17;;;6.22;;
58460;SDS011;45558;37.752;-97.822;2022-11-20T00:36:18;36.75;;;5.93;;
58460;SDS011;45558;37.752;-97.822;2022-11-20T00:38:56;33.58;;;5.38;;
58460;SDS011;45558;37.752;-97.822;2022-11-20T00:41:22;46.50;;;5.20;;
58460;SDS011;45558;37.752;-97.822;2022-11-20T00:43:49;51.50;;;4.95;;
58460;SDS011;45558;37.752;-97.822;2022-11-20T00:46:17;38.67;;;7.60;;
58460;SDS011;45558;37.752;-97.822;2022-11-20T00:48:44;33.92;;;5.30;;
58460;SDS011;45558;37.752;-97.822;2022-11-20T00:51:11;35.08;;;5.65;;
58460;SDS011;45558;37.752;-97.822;2022-11-20T00:53:38;59.55;;;6.80;;
58460;SDS011;45558;37.752;-97.822;2022-11-20T00:56:05;40.80;;;6.50;;
58460;SDS011;45558;37.752;-97.822;2022-11-20T00:58:33;38.85;;;5.95;;
58460;SDS011;45558;37.752;-97.822;2022-11-20T01:01:01;36.05;;;6.00;;
58460;SDS011;45558;37.752;-97.822;2022-11-20T01:03:30;37.05;;;5.03;;
58460;SDS011;45558;37.752;-97.822;2022-11-20T01:05:59;49.75;;;5.07;;
58460;SDS011;45558;37.752;-97.822;2022-11-20T01:08:29;35.90;;;4.72;;
58460;SDS011;45558;37.752;-97.822;2022-11-20T01:11:03;29.07;;;5.00;;
58460;SDS011;45558;37.752;-97.822;2022-11-20T01:13:31;37.83;;;4.03;;
58460;SDS011;45558;37.752;-97.822;2022-11-20T01:19:25;36.72;;;4.80;;
58460;SDS011;45558;37.752;-97.822;2022-11-20T01:21:52;40.63;;;5.72;;
58460;SDS011;45558;37.752;-97.822;2022-11-20T01:24:19;36.47;;;6.53;;
58460;SDS011;45558;37.752;-97.822;2022-11-20T01:26:47;38.97;;;6.10;;
58460;SDS011;45558;37.752;-97.822;2022-11-20T01:29:17;39.42;;;6.70;;
58460;SDS011;45558;37.752;-97.822;2022-11-20T01:31:49;43.92;;;6.60;;
58460;SDS011;45558;37.752;-97.822;2022-11-20T01:34:17;47.53;;;6.30;;
58460;SDS011;45558;37.752;-97.822;2022-11-20T01:36:44;41.25;;;3.97;;
58460;SDS011;45558;37.752;-97.822;2022-11-20T01:39:14;48.95;;;9.00;;
58460;SDS011;45558;37.752;-97.822;2022-11-20T01:41:42;36.88;;;5.28;;
58460;SDS011;45558;37.752;-97.822;2022-11-20T01:47:16;42.55;;;4.47;;
58460;SDS011;45558;37.752;-97.822;2022-11-20T01:49:50;43.47;;;5.07;;
58460;SDS011;45558;37.752;-97.822;2022-11-20T01:52:21;44.33;;;6.45;;
58460;SDS011;45558;37.752;-97.822;2022-11-20T01:54:56;32.70;;;4.22;;
58460;SDS011;45558;37.752;-97.822;2022-11-20T01:57:33;37.20;;;4.95;;
58460;SDS011;45558;37.752;-97.822;2022-11-20T02:00:04;44.15;;;5.65;;
58460;SDS011;45558;37.752;-97.822;2022-11-20T02:02:32;31.25;;;4.28;;
58460;SDS011;45558;37.752;-97.822;2022-11-20T02:05:00;35.13;;;3.97;;
58460;SDS011;45558;37.752;-97.822;2022-11-20T02:07:30;45.85;;;6.43;;
58460;SDS011;45558;37.752;-97.822;2022-11-20T02:09:56;42.05;;;5.03;;
58460;SDS011;45558;37.752;-97.822;2022-11-20T02:12:22;40.42;;;4.72;;
58460;SDS011;45558;37.752;-97.822;2022-11-20T02:15:06;37.45;;;4.60;;
58460;SDS011;45558;37.752;-97.822;2022-11-20T02:17:32;36.58;;;4.43;;
58460;SDS011;45558;37.752;-97.822;2022-11-20T02:19:57;37.63;;;4.05;;
58460;SDS011;45558;37.752;-97.822;2022-11-20T02:22:31;37.97;;;4.82;;
58460;SDS011;45558;37.752;-97.822;2022-11-20T02:25:04;28.42;;;4.05;;
58460;SDS011;45558;37.752;-97.822;2022-11-20T02:27:31;31.13;;;4.53;;
58460;SDS011;45558;37.752;-97.822;2022-11-20T02:29:57;27.38;;;3.67;;
58460;SDS011;45558;37.752;-97.822;2022-11-20T02:32:28;30.48;;;3.67;;
58460;SDS011;45558;37.752;-97.822;2022-11-20T02:34:55;35.88;;;5.80;;
58460;SDS011;45558;37.752;-97.822;2022-11-20T02:37:21;26.63;;;2.60;;
58460;SDS011;45558;37.752;-97.822;2022-11-20T02:39:48;24.55;;;3.70;;
58460;SDS011;45558;37.752;-97.822;2022-11-20T02:42:15;19.67;;;2.47;;
58460;SDS011;45558;37.752;-97.822;2022-11-20T02:44:41;27.80;;;4.20;;
58460;SDS011;45558;37.752;-97.822;2022-11-20T02:47:06;25.63;;;3.90;;
58460;SDS011;45558;37.752;-97.822;2022-11-20T02:49:32;31.17;;;3.13;;
58460;SDS011;45558;37.752;-97.822;2022-11-20T02:51:58;28.10;;;3.85;;
58460;SDS011;45558;37.752;-97.822;2022-11-20T02:54:24;21.23;;;2.85;;
58460;SDS011;45558;37.752;-97.822;2022-11-20T02:56:50;21.75;;;2.70;;
58460;SDS011;45558;37.752;-97.822;2022-11-20T02:59:16;20.08;;;2.92;;
58460;SDS011;45558;37.752;-97.822;2022-11-20T03:01:42;23.92;;;2.50;;
58460;SDS011;45558;37.752;-97.822;2022-11-20T03:04:08;17.45;;;3.10;;
58460;SDS011;45558;37.752;-97.822;2022-11-20T03:06:33;23.58;;;2.42;;
58460;SDS011;45558;37.752;-97.822;2022-11-20T03:08:59;18.75;;;1.92;;
58460;SDS011;45558;37.752;-97.822;2022-11-20T03:11:25;25.15;;;2.20;;
58460;SDS011;45558;37.752;-97.822;2022-11-20T03:13:50;16.33;;;1.90;;
58460;SDS011;45558;37.752;-97.822;2022-11-20T03:16:18;18.65;;;2.03;;
58460;SDS011;45558;37.752;-97.822;2022-11-20T03:18:45;21.92;;;2.28;;
58460;SDS011;45558;37.752;-97.822;2022-11-20T03:21:12;18.33;;;2.17;;
58460;SDS011;45558;37.752;-97.822;2022-11-20T03:23:38;10.43;;;2.20;;
58460;SDS011;45558;37.752;-97.822;2022-11-20T03:29:26;16.15;;;1.40;;
58460;SDS011;45558;37.752;-97.822;2022-11-20T03:31:52;19.63;;;2.38;;
58460;SDS011;45558;37.752;-97.822;2022-11-20T03:34:17;15.65;;;2.47;;
58460;SDS011;45558;37.752;-97.822;2022-11-20T03:36:44;26.35;;;2.17;;
58460;SDS011;45558;37.752;-97.822;2022-11-20T03:39:10;11.23;;;2.38;;
58460;SDS011;45558;37.752;-97.822;2022-11-20T03:41:37;13.30;;;2.13;;
58460;SDS011;45558;37.752;-97.822;2022-11-20T03:44:04;22.05;;;3.50;;
58460;SDS011;45558;37.752;-97.822;2022-11-20T03:46:31;21.75;;;2.72;;
58460;SDS011;45558;37.752;-97.822;2022-11-20T03:48:57;23.85;;;3.08;;
58460;SDS011;45558;37.752;-97.822;2022-11-20T03:51:24;18.98;;;2.30;;
58460;SDS011;45558;37.752;-97.822;2022-11-20T03:53:52;27.80;;;3.83;;
58460;SDS011;45558;37.752;-97.822;2022-11-20T03:56:22;15.25;;;2.50;;
58460;SDS011;45558;37.752;-97.822;2022-11-20T03:58:49;24.13;;;3.58;;
58460;SDS011;45558;37.752;-97.822;2022-11-20T04:01:19;26.83;;;3.65;;
58460;SDS011;45558;37.752;-97.822;2022-11-20T04:03:47;21.17;;;3.13;;
58460;SDS011;45558;37.752;-97.822;2022-11-20T04:06:15;18.05;;;2.65;;
58460;SDS011;45558;37.752;-97.822;2022-11-20T04:08:42;36.53;;;2.85;;
58460;SDS011;45558;37.752;-97.822;2022-11-20T04:11:11;26.63;;;3.65;;
58460;SDS011;45558;37.752;-97.822;2022-11-20T04:13:41;18.50;;;1.65;;
58460;SDS011;45558;37.752;-97.822;2022-11-20T04:16:08;20.83;;;2.47;;
58460;SDS011;45558;37.752;-97.822;2022-11-20T04:18:34;16.10;;;2.47;;
58460;SDS011;45558;37.752;-97.822;2022-11-20T04:21:00;23.75;;;2.42;;
58460;SDS011;45558;37.752;-97.822;2022-11-20T04:23:26;27.20;;;3.47;;
58460;SDS011;45558;37.752;-97.822;2022-11-20T04:25:52;21.80;;;2.22;;
58460;SDS011;45558;37.752;-97.822;2022-11-20T04:28:18;18.83;;;2.25;;
58460;SDS011;45558;37.752;-97.822;2022-11-20T04:30:44;20.35;;;2.92;;
58460;SDS011;45558;37.752;-97.822;2022-11-20T04:33:10;22.60;;;2.38;;
58460;SDS011;45558;37.752;-97.822;2022-11-20T04:35:35;28.02;;;4.40;;
58460;SDS011;45558;37.752;-97.822;2022-11-20T04:38:02;17.73;;;2.47;;
58460;SDS011;45558;37.752;-97.822;2022-11-20T04:40:28;17.73;;;2.95;;
58460;SDS011;45558;37.752;-97.822;2022-11-20T04:46:16;27.58;;;2.75;;
58460;SDS011;45558;37.752;-97.822;2022-11-20T04:48:42;22.50;;;3.53;;
58460;SDS011;45558;37.752;-97.822;2022-11-20T04:51:08;18.13;;;2.47;;
58460;SDS011;45558;37.752;-97.822;2022-11-20T04:53:33;16.38;;;2.17;;
58460;SDS011;45558;37.752;-97.822;2022-11-20T04:56:03;29.73;;;2.95;;
58460;SDS011;45558;37.752;-97.822;2022-11-20T04:58:30;19.05;;;2.65;;
58460;SDS011;45558;37.752;-97.822;2022-11-20T05:01:07;22.38;;;3.05;;
58460;SDS011;45558;37.752;-97.822;2022-11-20T05:03:37;26.25;;;2.58;;
58460;SDS011;45558;37.752;-97.822;2022-11-20T05:06:04;20.17;;;2.08;;
58460;SDS011;45558;37.752;-97.822;2022-11-20T05:08:30;25.35;;;3.15;;
58460;SDS011;45558;37.752;-97.822;2022-11-20T05:11:03;20.45;;;2.95;;
58460;SDS011;45558;37.752;-97.822;2022-11-20T05:13:34;16.48;;;2.08;;
58460;SDS011;45558;37.752;-97.822;2022-11-20T05:16:03;23.38;;;3.05;;
58460;SDS011;45558;37.752;-97.822;2022-11-20T05:18:33;27.08;;;2.70;;
58460;SDS011;45558;37.752;-97.822;2022-11-20T05:20:59;17.30;;;2.88;;
58460;SDS011;45558;37.752;-97.822;2022-11-20T05:23:26;19.48;;;1.77;;
58460;SDS011;45558;37.752;-97.822;2022-11-20T05:25:52;22.48;;;2.33;;
58460;SDS011;45558;37.752;-97.822;2022-11-20T05:28:19;18.75;;;2.33;;
58460;SDS011;45558;37.752;-97.822;2022-11-20T05:30:45;25.75;;;2.75;;
58460;SDS011;45558;37.752;-97.822;2022-11-20T05:33:11;25.40;;;2.95;;
58460;SDS011;45558;37.752;-97.822;2022-11-20T05:35:36;20.17;;;1.73;;
58460;SDS011;45558;37.752;-97.822;2022-11-20T05:38:02;18.23;;;2.17;;
58460;SDS011;45558;37.752;-97.822;2022-11-20T05:40:28;21.00;;;2.53;;
58460;SDS011;45558;37.752;-97.822;2022-11-20T05:42:54;26.75;;;1.80;;
58460;SDS011;45558;37.752;-97.822;2022-11-20T05:45:19;20.92;;;2.30;;
58460;SDS011;45558;37.752;-97.822;2022-11-20T05:47:45;17.15;;;2.42;;
58460;SDS011;45558;37.752;-97.822;2022-11-20T05:50:11;21.95;;;2.35;;
58460;SDS011;45558;37.752;-97.822;2022-11-20T05:52:36;19.35;;;2.30;;
58460;SDS011;45558;37.752;-97.822;2022-11-20T05:55:02;17.63;;;2.20;;
58460;SDS011;45558;37.752;-97.822;2022-11-20T05:57:28;17.70;;;2.25;;
58460;SDS011;45558;37.752;-97.822;2022-11-20T05:59:54;25.25;;;2.67;;
58460;SDS011;45558;37.752;-97.822;2022-11-20T06:02:20;24.70;;;2.47;;
58460;SDS011;45558;37.752;-97.822;2022-11-20T06:04:46;26.90;;;3.92;;
58460;SDS011;45558;37.752;-97.822;2022-11-20T06:07:12;18.53;;;2.33;;
58460;SDS011;45558;37.752;-97.822;2022-11-20T06:09:38;24.95;;;2.55;;
58460;SDS011;45558;37.752;-97.822;2022-11-20T06:12:04;21.40;;;1.80;;
58460;SDS011;45558;37.752;-97.822;2022-11-20T06:14:30;28.15;;;2.88;;
58460;SDS011;45558;37.752;-97.822;2022-11-20T06:16:56;16.05;;;1.75;;
58460;SDS011;45558;37.752;-97.822;2022-11-20T06:19:22;27.90;;;5.57;;
58460;SDS011;45558;37.752;-97.822;2022-11-20T06:21:48;23.40;;;2.63;;
58460;SDS011;45558;37.752;-97.822;2022-11-20T06:24:14;22.40;;;3.10;;
58460;SDS011;45558;37.752;-97.822;2022-11-20T06:26:40;18.05;;;3.55;;
58460;SDS011;45558;37.752;-97.822;2022-11-20T06:29:06;18.80;;;2.10;;
58460;SDS011;45558;37.752;-97.822;2022-11-20T06:31:32;22.98;;;1.77;;
58460;SDS011;45558;37.752;-97.822;2022-11-20T06:34:00;21.80;;;3.47;;
58460;SDS011;45558;37.752;-97.822;2022-11-20T06:36:26;24.70;;;2.67;;
58460;SDS011;45558;37.752;-97.822;2022-11-20T06:38:52;20.20;;;2.80;;
58460;SDS011;45558;37.752;-97.822;2022-11-20T06:41:19;25.42;;;2.33;;
58460;SDS011;45558;37.752;-97.822;2022-11-20T06:43:46;24.95;;;5.60;;
58460;SDS011;45558;37.752;-97.822;2022-11-20T06:46:13;29.48;;;2.85;;
58460;SDS011;45558;37.752;-97.822;2022-11-20T06:48:39;30.60;;;2.28;;
58460;SDS011;45558;37.752;-97.822;2022-11-20T06:51:06;21.55;;;2.42;;
58460;SDS011;45558;37.752;-97.822;2022-11-20T06:53:33;21.20;;;1.83;;
58460;SDS011;45558;37.752;-97.822;2022-11-20T06:56:00;23.52;;;2.60;;
58460;SDS011;45558;37.752;-97.822;2022-11-20T06:58:26;17.55;;;2.00;;
58460;SDS011;45558;37.752;-97.822;2022-11-20T07:00:53;15.45;;;2.42;;
58460;SDS011;45558;37.752;-97.822;2022-11-20T07:03:19;15.52;;;2.25;;
58460;SDS011;45558;37.752;-97.822;2022-11-20T07:05:45;20.30;;;1.95;;
58460;SDS011;45558;37.752;-97.822;2022-11-20T07:08:11;16.30;;;2.83;;
58460;SDS011;45558;37.752;-97.822;2022-11-20T07:10:38;22.75;;;1.92;;
58460;SDS011;45558;37.752;-97.822;2022-11-20T07:13:04;21.10;;;2.50;;
58460;SDS011;45558;37.752;-97.822;2022-11-20T07:15:30;28.25;;;2.30;;
58460;SDS011;45558;37.752;-97.822;2022-11-20T07:17:58;16.58;;;2.38;;
58460;SDS011;45558;37.752;-97.822;2022-11-20T07:20:24;22.92;;;2.17;;
58460;SDS011;45558;37.752;-97.822;2022-11-20T07:22:57;21.00;;;1.88;;
58460;SDS011;45558;37.752;-97.822;2022-11-20T07:25:23;17.63;;;1.55;;
58460;SDS011;45558;37.752;-97.822;2022-11-20T07:27:50;18.95;;;1.95;;
58460;SDS011;45558;37.752;-97.822;2022-11-20T07:30:16;16.15;;;1.58;;
58460;SDS011;45558;37.752;-97.822;2022-11-20T07:32:42;15.90;;;1.60;;
58460;SDS011;45558;37.752;-97.822;2022-11-20T07:35:08;16.55;;;2.50;;
58460;SDS011;45558;37.752;-97.822;2022-11-20T07:37:34;20.25;;;4.00;;
58460;SDS011;45558;37.752;-97.822;2022-11-20T07:40:00;14.63;;;1.20;;
58460;SDS011;45558;37.752;-97.822;2022-11-20T07:42:26;18.25;;;2.05;;
58460;SDS011;45558;37.752;-97.822;2022-11-20T07:44:52;16.35;;;1.77;;
58460;SDS011;45558;37.752;-97.822;2022-11-20T07:47:18;21.67;;;1.88;;
58460;SDS011;45558;37.752;-97.822;2022-11-20T07:49:44;19.42;;;2.22;;
58460;SDS011;45558;37.752;-97.822;2022-11-20T07:52:10;17.23;;;2.38;;
58460;SDS011;45558;37.752;-97.822;2022-11-20T07:54:36;10.90;;;1.50;;
58460;SDS011;45558;37.752;-97.822;2022-11-20T07:57:02;14.82;;;1.88;;
58460;SDS011;45558;37.752;-97.822;2022-11-20T07:59:28;11.45;;;2.22;;
58460;SDS011;45558;37.752;-97.822;2022-11-20T08:01:54;9.25;;;1.45;;
58460;SDS011;45558;37.752;-97.822;2022-11-20T08:04:20;14.10;;;1.63;;
58460;SDS011;45558;37.752;-97.822;2022-11-20T08:06:51;9.40;;;1.23;;
58460;SDS011;45558;37.752;-97.822;2022-11-20T08:09:17;5.80;;;1.58;;
58460;SDS011;45558;37.752;-97.822;2022-11-20T08:11:43;4.38;;;0.60;;
58460;SDS011;45558;37.752;-97.822;2022-11-20T08:14:29;4.43;;;0.47;;
58460;SDS011;45558;37.752;-97.822;2022-11-20T08:16:55;3.15;;;0.50;;
58460;SDS011;45558;37.752;-97.822;2022-11-20T08:19:21;7.57;;;0.60;;
58460;SDS011;45558;37.752;-97.822;2022-11-20T08:21:47;6.95;;;0.95;;
58460;SDS011;45558;37.752;-97.822;2022-11-20T08:24:13;5.18;;;0.80;;
58460;SDS011;45558;37.752;-97.822;2022-11-20T08:26:39;4.03;;;0.68;;
58460;SDS011;45558;37.752;-97.822;2022-11-20T08:29:06;9.35;;;0.93;;
58460;SDS011;45558;37.752;-97.822;2022-11-20T08:31:32;6.28;;;0.85;;
58460;SDS011;45558;37.752;-97.822;2022-11-20T08:33:59;4.82;;;0.70;;
58460;SDS011;45558;37.752;-97.822;2022-11-20T08:36:25;4.80;;;1.02;;
58460;SDS011;45558;37.752;-97.822;2022-11-20T08:38:51;7.38;;;1.10;;
58460;SDS011;45558;37.752;-97.822;2022-11-20T08:41:18;7.10;;;0.80;;
58460;SDS011;45558;37.752;-97.822;2022-11-20T08:43:54;16.20;;;1.83;;
58460;SDS011;45558;37.752;-97.822;2022-11-20T08:46:25;8.13;;;0.70;;
58460;SDS011;45558;37.752;-97.822;2022-11-20T08:48:56;5.03;;;1.75;;
58460;SDS011;45558;37.752;-97.822;2022-11-20T08:51:22;9.98;;;1.25;;
58460;SDS011;45558;37.752;-97.822;2022-11-20T08:53:48;6.03;;;0.70;;
58460;SDS011;45558;37.752;-97.822;2022-11-20T08:56:14;5.60;;;1.27;;
58460;SDS011;45558;37.752;-97.822;2022-11-20T08:58:40;14.40;;;1.13;;
58460;SDS011;45558;37.752;-97.822;2022-11-20T09:01:06;10.65;;;1.20;;
58460;SDS011;45558;37.752;-97.822;2022-11-20T09:03:32;6.40;;;0.80;;
58460;SDS011;45558;37.752;-97.822;2022-11-20T09:06:03;11.43;;;1.52;;
58460;SDS011;45558;37.752;-97.822;2022-11-20T09:08:30;4.28;;;0.70;;
58460;SDS011;45558;37.752;-97.822;2022-11-20T09:10:57;7.90;;;1.20;;
58460;SDS011;45558;37.752;-97.822;2022-11-20T09:13:23;5.57;;;1.02;;
58460;SDS011;45558;37.752;-97.822;2022-11-20T09:15:57;8.20;;;1.00;;
58460;SDS011;45558;37.752;-97.822;2022-11-20T09:18:24;5.70;;;0.65;;
58460;SDS011;45558;37.752;-97.822;2022-11-20T09:20:50;2.65;;;0.60;;
58460;SDS011;45558;37.752;-97.822;2022-11-20T09:23:16;4.18;;;0.65;;
58460;SDS011;45558;37.752;-97.822;2022-11-20T09:25:42;9.40;;;1.08;;
58460;SDS011;45558;37.752;-97.822;2022-11-20T09:28:08;3.47;;;0.40;;
58460;SDS011;45558;37.752;-97.822;2022-11-20T09:30:35;4.45;;;1.25;;
58460;SDS011;45558;37.752;-97.822;2022-11-20T09:33:01;7.97;;;0.70;;
58460;SDS011;45558;37.752;-97.822;2022-11-20T09:35:29;3.13;;;0.40;;
58460;SDS011;45558;37.752;-97.822;2022-11-20T09:37:56;3.92;;;0.43;;
58460;SDS011;45558;37.752;-97.822;2022-11-20T09:40:26;3.85;;;0.60;;
58460;SDS011;45558;37.752;-97.822;2022-11-20T09:42:57;2.42;;;0.40;;
58460;SDS011;45558;37.752;-97.822;2022-11-20T09:45:39;1.15;;;0.50;;
58460;SDS011;45558;37.752;-97.822;2022-11-20T09:56:41;2.47;;;0.35;;
58460;SDS011;45558;37.752;-97.822;2022-11-20T10:02:00;2.08;;;0.40;;
58460;SDS011;45558;37.752;-97.822;2022-11-20T10:04:29;4.97;;;0.40;;
58460;SDS011;45558;37.752;-97.822;2022-11-20T10:09:55;1.85;;;0.30;;
58460;SDS011;45558;37.752;-97.822;2022-11-20T10:18:13;0.70;;;0.30;;
58460;SDS011;45558;37.752;-97.822;2022-11-20T10:26:03;1.17;;;0.52;;
58460;SDS011;45558;37.752;-97.822;2022-11-20T10:31:13;1.52;;;0.35;;
58460;SDS011;45558;37.752;-97.822;2022-11-20T10:33:43;2.22;;;0.30;;
58460;SDS011;45558;37.752;-97.822;2022-11-20T10:36:19;1.80;;;0.38;;
58460;SDS011;45558;37.752;-97.822;2022-11-20T10:38:53;1.27;;;0.35;;
58460;SDS011;45558;37.752;-97.822;2022-11-20T10:41:32;0.60;;;0.22;;
58460;SDS011;45558;37.752;-97.822;2022-11-20T10:44:04;0.63;;;0.30;;
58460;SDS011;45558;37.752;-97.822;2022-11-20T10:46:43;2.85;;;0.43;;
58460;SDS011;45558;37.752;-97.822;2022-11-20T10:49:19;1.02;;;0.30;;
58460;SDS011;45558;37.752;-97.822;2022-11-20T10:54:39;7.45;;;1.45;;
58460;SDS011;45558;37.752;-97.822;2022-11-20T10:57:10;4.93;;;1.17;;
58460;SDS011;45558;37.752;-97.822;2022-11-20T11:02:49;3.47;;;0.60;;
58460;SDS011;45558;37.752;-97.822;2022-11-20T11:08:14;0.90;;;0.30;;
58460;SDS011;45558;37.752;-97.822;2022-11-20T11:10:53;1.17;;;0.55;;
58460;SDS011;45558;37.752;-97.822;2022-11-20T11:13:21;3.90;;;0.82;;
58460;SDS011;45558;37.752;-97.822;2022-11-20T11:15:49;2.45;;;0.40;;
58460;SDS011;45558;37.752;-97.822;2022-11-20T11:18:28;0.52;;;0.20;;
58460;SDS011;45558;37.752;-97.822;2022-11-20T11:20:57;1.42;;;0.30;;
58460;SDS011;45558;37.752;-97.822;2022-11-20T11:23:34;1.30;;;0.10;;
58460;SDS011;45558;37.752;-97.822;2022-11-20T11:26:05;0.93;;;0.30;;
58460;SDS011;45558;37.752;-97.822;2022-11-20T11:28:32;1.48;;;0.70;;
58460;SDS011;45558;37.752;-97.822;2022-11-20T11:30:59;1.63;;;0.40;;
58460;SDS011;45558;37.752;-97.822;2022-11-20T11:33:27;1.15;;;0.40;;
58460;SDS011;45558;37.752;-97.822;2022-11-20T11:39:17;2.95;;;0.55;;
58460;SDS011;45558;37.752;-97.822;2022-11-20T11:41:45;1.58;;;0.68;;
58460;SDS011;45558;37.752;-97.822;2022-11-20T11:44:21;1.38;;;0.50;;
58460;SDS011;45558;37.752;-97.822;2022-11-20T11:47:28;2.88;;;0.47;;
58460;SDS011;45558;37.752;-97.822;2022-11-20T11:57:59;2.22;;;0.52;;
58460;SDS011;45558;37.752;-97.822;2022-11-20T12:00:27;1.73;;;0.52;;
58460;SDS011;45558;37.752;-97.822;2022-11-20T12:03:28;0.90;;;0.20;;
58460;SDS011;45558;37.752;-97.822;2022-11-20T12:06:16;1.58;;;0.20;;
58460;SDS011;45558;37.752;-97.822;2022-11-20T12:16:40;1.02;;;0.20;;
58460;SDS011;45558;37.752;-97.822;2022-11-20T12:19:11;2.13;;;0.20;;
58460;SDS011;45558;37.752;-97.822;2022-11-20T12:40:26;6.28;;;3.03;;
58460;SDS011;45558;37.752;-97.822;2022-11-20T13:02:49;4.60;;;0.75;;
58460;SDS011;45558;37.752;-97.822;2022-11-20T13:08:19;7.00;;;2.28;;
58460;SDS011;45558;37.752;-97.822;2022-11-20T13:15:56;6.80;;;1.10;;
58460;SDS011;45558;37.752;-97.822;2022-11-20T13:18:25;10.88;;;2.08;;
58460;SDS011;45558;37.752;-97.822;2022-11-20T13:20:51;6.60;;;0.75;;
58460;SDS011;45558;37.752;-97.822;2022-11-20T13:23:27;6.13;;;0.75;;
58460;SDS011;45558;37.752;-97.822;2022-11-20T13:26:06;10.90;;;1.95;;
58460;SDS011;45558;37.752;-97.822;2022-11-20T13:28:41;11.60;;;1.02;;
58460;SDS011;45558;37.752;-97.822;2022-11-20T13:34:14;10.65;;;1.92;;
58460;SDS011;45558;37.752;-97.822;2022-11-20T13:36:52;8.27;;;1.65;;
58460;SDS011;45558;37.752;-97.822;2022-11-20T13:39:29;8.70;;;1.25;;
58460;SDS011;45558;37.752;-97.822;2022-11-20T13:41:58;9.07;;;1.20;;
58460;SDS011;45558;37.752;-97.822;2022-11-20T13:46:51;7.82;;;1.05;;
58460;SDS011;45558;37.752;-97.822;2022-11-20T13:49:38;5.80;;;0.82;;
58460;SDS011;45558;37.752;-97.822;2022-11-20T13:55:15;7.18;;;0.90;;
58460;SDS011;45558;37.752;-97.822;2022-11-20T14:00:29;6.43;;;1.55;;
58460;SDS011;45558;37.752;-97.822;2022-11-20T14:05:31;9.88;;;1.40;;
58460;SDS011;45558;37.752;-97.822;2022-11-20T14:08:02;13.57;;;1.83;;
58460;SDS011;45558;37.752;-97.822;2022-11-20T14:10:29;9.55;;;2.45;;
58460;SDS011;45558;37.752;-97.822;2022-11-20T14:12:55;14.77;;;2.60;;
58460;SDS011;45558;37.752;-97.822;2022-11-20T14:15:28;12.02;;;2.28;;
58460;SDS011;45558;37.752;-97.822;2022-11-20T14:17:55;11.77;;;3.00;;
58460;SDS011;45558;37.752;-97.822;2022-11-20T14:20:23;12.05;;;4.60;;
58460;SDS011;45558;37.752;-97.822;2022-11-20T14:22:51;7.05;;;1.70;;
58460;SDS011;45558;37.752;-97.822;2022-11-20T14:25:20;7.15;;;1.90;;
58460;SDS011;45558;37.752;-97.822;2022-11-20T14:27:52;10.43;;;4.32;;
58460;SDS011;45558;37.752;-97.822;2022-11-20T14:32:46;5.10;;;2.28;;
58460;SDS011;45558;37.752;-97.822;2022-11-20T14:35:34;9.40;;;3.25;;
58460;SDS011;45558;37.752;-97.822;2022-11-20T14:38:02;7.85;;;3.45;;
58460;SDS011;45558;37.752;-97.822;2022-11-20T14:40:32;4.22;;;2.05;;
58460;SDS011;45558;37.752;-97.822;2022-11-20T14:43:18;10.80;;;2.83;;
58460;SDS011;45558;37.752;-97.822;2022-11-20T14:45:52;5.18;;;1.00;;
58460;SDS011;45558;37.752;-97.822;2022-11-20T14:48:21;11.18;;;1.98;;
58460;SDS011;45558;37.752;-97.822;2022-11-20T14:50:52;7.28;;;2.17;;
58460;SDS011;45558;37.752;-97.822;2022-11-20T14:53:22;6.97;;;3.05;;
58460;SDS011;45558;37.752;-97.822;2022-11-20T14:55:54;3.53;;;1.15;;
58460;SDS011;45558;37.752;-97.822;2022-11-20T14:58:26;6.75;;;1.88;;
58460;SDS011;45558;37.752;-97.822;2022-11-20T15:06:04;4.53;;;1.30;;
58460;SDS011;45558;37.752;-97.822;2022-11-20T15:08:31;4.55;;;0.73;;
58460;SDS011;45558;37.752;-97.822;2022-11-20T15:10:57;3.78;;;0.70;;
58460;SDS011;45558;37.752;-97.822;2022-11-20T15:13:29;7.35;;;0.60;;
58460;SDS011;45558;37.752;-97.822;2022-11-20T15:16:02;5.57;;;0.77;;
58460;SDS011;45558;37.752;-97.822;2022-11-20T15:18:39;3.83;;;0.70;;
58460;SDS011;45558;37.752;-97.822;2022-11-20T15:21:11;7.47;;;1.02;;
58460;SDS011;45558;37.752;-97.822;2022-11-20T15:23:39;10.70;;;3.25;;
58460;SDS011;45558;37.752;-97.822;2022-11-20T15:26:05;6.80;;;1.67;;
58460;SDS011;45558;37.752;-97.822;2022-11-20T15:28:41;8.20;;;1.90;;
58460;SDS011;45558;37.752;-97.822;2022-11-20T15:31:11;28.27;;;8.05;;
58460;SDS011;45558;37.752;-97.822;2022-11-20T15:33:37;8.32;;;1.42;;
58460;SDS011;45558;37.752;-97.822;2022-11-20T15:36:04;36.50;;;14.27;;
58460;SDS011;45558;37.752;-97.822;2022-11-20T15:38:30;35.17;;;14.15;;
58460;SDS011;45558;37.752;-97.822;2022-11-20T15:40:56;27.50;;;11.70;;
58460;SDS011;45558;37.752;-97.822;2022-11-20T15:43:23;24.17;;;10.40;;
58460;SDS011;45558;37.752;-97.822;2022-11-20T15:45:50;17.92;;;6.00;;
58460;SDS011;45558;37.752;-97.822;2022-11-20T15:48:25;39.15;;;17.20;;
58460;SDS011;45558;37.752;-97.822;2022-11-20T15:53:41;38.55;;;16.02;;
58460;SDS011;45558;37.752;-97.822;2022-11-20T15:56:13;40.38;;;18.45;;
58460;SDS011;45558;37.752;-97.822;2022-11-20T15:58:40;32.05;;;15.13;;
58460;SDS011;45558;37.752;-97.822;2022-11-20T16:01:09;33.15;;;14.68;;
58460;SDS011;45558;37.752;-97.822;2022-11-20T16:03:36;20.45;;;9.18;;
58460;SDS011;45558;37.752;-97.822;2022-11-20T16:06:02;20.15;;;8.40;;
58460;SDS011;45558;37.752;-97.822;2022-11-20T16:08:28;42.10;;;16.83;;
58460;SDS011;45558;37.752;-97.822;2022-11-20T16:10:54;49.42;;;24.30;;
58460;SDS011;45558;37.752;-97.822;2022-11-20T16:13:20;41.90;;;17.48;;
58460;SDS011;45558;37.752;-97.822;2022-11-20T16:16:11;32.20;;;14.75;;
58460;SDS011;45558;37.752;-97.822;2022-11-20T16:18:48;39.42;;;18.60;;
58460;SDS011;45558;37.752;-97.822;2022-11-20T16:21:15;31.35;;;12.02;;
58460;SDS011;45558;37.752;-97.822;2022-11-20T16:23:41;41.97;;;17.27;;
58460;SDS011;45558;37.752;-97.822;2022-11-20T16:26:12;24.48;;;8.80;;
58460;SDS011;45558;37.752;-97.822;2022-11-20T16:28:39;24.60;;;11.18;;
58460;SDS011;45558;37.752;-97.822;2022-11-20T16:31:09;26.55;;;9.77;;
58460;SDS011;45558;37.752;-97.822;2022-11-20T16:33:39;15.80;;;7.65;;
58460;SDS011;45558;37.752;-97.822;2022-11-20T16:36:07;40.97;;;20.00;;
58460;SDS011;45558;37.752;-97.822;2022-11-20T16:38:33;31.13;;;15.65;;
58460;SDS011;45558;37.752;-97.822;2022-11-20T16:41:00;33.08;;;15.43;;